Time;durP1;ratioP1;P1;durP2;ratioP2;P2;SDS_P1;SDS_P2;PMS_P1;PMS_P2;Temp;Humidity;BMP_temperature;BMP_pressure;BME280_temperature;BME280_humidity;BME280_pressure;Samples;Min_cycle;Max_cycle;Signal;HPM_P1;HPM_P2
2023/09/21 00:01:04;;;;;;;9.20;4.05;;;22.40;61.90;;;;;;5133468;27;20432;-53
2023/09/21 00:03:30;;;;;;;7.60;4.00;;;22.40;62.00;;;;;;5133425;27;20401;-54
2023/09/21 00:05:57;;;;;;;8.05;4.05;;;22.40;62.00;;;;;;5114862;27;20030;-52
2023/09/21 00:08:24;;;;;;;7.45;3.65;;;22.50;62.10;;;;;;5133049;27;20087;-51
2023/09/21 00:10:54;;;;;;;9.25;3.65;;;22.50;62.00;;;;;;5133240;27;20023;-52
2023/09/21 00:13:22;;;;;;;8.30;3.72;;;22.50;62.10;;;;;;5133330;27;20030;-47
2023/09/21 00:15:49;;;;;;;11.10;3.80;;;22.50;62.20;;;;;;5115025;27;20172;-50
2023/09/21 00:18:15;;;;;;;11.40;4.45;;;22.40;62.10;;;;;;5132836;27;20033;-49
2023/09/21 00:20:48;;;;;;;8.88;3.47;;;22.40;62.00;;;;;;5132970;27;20027;-55
2023/09/21 00:23:15;;;;;;;11.57;4.18;;;22.40;62.10;;;;;;5133246;27;20015;-55
2023/09/21 00:25:41;;;;;;;8.50;3.85;;;22.40;62.20;;;;;;5133001;27;20027;-51
2023/09/21 00:28:07;;;;;;;7.28;3.70;;;22.40;62.10;;;;;;5132790;27;20031;-52
2023/09/21 00:30:35;;;;;;;10.85;3.47;;;22.40;62.20;;;;;;5132859;27;20046;-53
2023/09/21 00:33:08;;;;;;;7.72;3.67;;;22.40;62.00;;;;;;5132745;27;20027;-53
2023/09/21 00:35:41;;;;;;;8.35;3.75;;;22.40;62.10;;;;;;5132927;27;20031;-55
2023/09/21 00:38:10;;;;;;;7.65;3.80;;;22.40;62.10;;;;;;5114058;27;20099;-55
2023/09/21 00:40:38;;;;;;;8.57;4.00;;;22.50;62.70;;;;;;5132760;27;20027;-50
2023/09/21 00:43:06;;;;;;;7.18;3.72;;;22.40;62.10;;;;;;5132767;27;20023;-50
2023/09/21 00:45:54;;;;;;;5.82;3.17;;;22.40;62.10;;;;;;5114470;27;20023;-55
2023/09/21 00:48:25;;;;;;;8.27;3.47;;;22.40;62.20;;;;;;5114319;28;20026;-50
2023/09/21 00:50:54;;;;;;;6.43;3.00;;;22.40;62.10;;;;;;5132579;27;20489;-54
2023/09/21 00:53:22;;;;;;;6.40;3.35;;;22.40;62.20;;;;;;5132628;27;20055;-55
2023/09/21 00:55:51;;;;;;;8.00;3.78;;;22.40;62.20;;;;;;5132643;28;20424;-48
2023/09/21 00:58:19;;;;;;;6.18;3.40;;;22.40;62.20;;;;;;5113931;28;20050;-53
2023/09/21 01:00:46;;;;;;;6.95;3.50;;;22.40;62.20;;;;;;5132524;28;20031;-48
2023/09/21 01:03:13;;;;;;;7.82;3.40;;;22.40;62.20;;;;;;5132498;28;20023;-48
2023/09/21 01:05:41;;;;;;;7.15;3.67;;;22.40;62.60;;;;;;5132494;28;20478;-55
2023/09/21 01:08:18;;;;;;;5.88;3.28;;;22.40;62.30;;;;;;5097008;28;20028;-54
2023/09/21 01:10:49;;;;;;;9.52;3.55;;;22.40;62.20;;;;;;5132271;28;20027;-55
2023/09/21 01:13:17;;;;;;;12.63;3.70;;;22.40;62.20;;;;;;5114234;28;20031;-55
2023/09/21 01:15:59;;;;;;;8.68;3.95;;;22.40;62.30;;;;;;5132413;28;20408;-56
2023/09/21 01:18:24;;;;;;;7.93;3.90;;;22.50;62.40;;;;;;5132421;28;20063;-56
2023/09/21 01:20:55;;;;;;;6.45;3.35;;;22.40;62.30;;;;;;5113779;28;20102;-56
2023/09/21 01:23:35;;;;;;;9.00;3.75;;;22.40;62.10;;;;;;5132415;28;20046;-54
2023/09/21 01:26:01;;;;;;;8.23;3.22;;;22.40;62.20;;;;;;5132488;28;20015;-53
2023/09/21 01:28:29;;;;;;;6.57;3.33;;;22.40;62.20;;;;;;5131948;28;20030;-53
2023/09/21 01:30:58;;;;;;;6.50;3.47;;;22.40;62.30;;;;;;5132163;28;20027;-55
2023/09/21 01:33:24;;;;;;;10.43;3.97;;;22.40;62.30;;;;;;5113848;28;20027;-55
2023/09/21 01:35:50;;;;;;;7.45;3.53;;;22.40;62.60;;;;;;5132190;28;20038;-56
2023/09/21 01:38:17;;;;;;;8.13;3.80;;;22.40;62.20;;;;;;5131723;28;20079;-56
2023/09/21 01:40:43;;;;;;;8.13;3.35;;;22.40;62.30;;;;;;5132038;28;20079;-55
2023/09/21 01:43:14;;;;;;;6.90;3.17;;;22.40;62.80;;;;;;5113715;28;20034;-55
2023/09/21 01:45:42;;;;;;;8.98;2.85;;;22.40;62.20;;;;;;5135049;27;20023;-55
2023/09/21 01:48:14;;;;;;;10.95;3.03;;;22.40;61.40;;;;;;5117414;27;20503;-55
2023/09/21 01:50:46;;;;;;;8.98;3.25;;;22.30;61.20;;;;;;5117601;27;20054;-55
2023/09/21 01:53:13;;;;;;;7.38;2.50;;;22.20;61.20;;;;;;5117587;27;20542;-54
2023/09/21 01:55:40;;;;;;;6.65;2.80;;;22.10;61.40;;;;;;5136128;27;20027;-55
2023/09/21 01:58:09;;;;;;;5.95;2.83;;;22.10;61.30;;;;;;5117097;27;20406;-55
2023/09/21 02:00:39;;;;;;;8.27;2.67;;;22.10;60.90;;;;;;5117341;27;20023;-53
2023/09/21 02:03:08;;;;;;;12.40;3.25;;;22.10;61.60;;;;;;5135966;27;20413;-55
2023/09/21 02:05:36;;;;;;;6.45;2.83;;;22.00;60.80;;;;;;5135698;27;20072;-55
2023/09/21 02:08:04;;;;;;;6.55;2.72;;;22.00;61.10;;;;;;5135350;27;20066;-54
2023/09/21 02:10:32;;;;;;;7.07;2.60;;;22.00;61.20;;;;;;5117361;27;20027;-49
2023/09/21 02:13:00;;;;;;;8.80;2.85;;;22.00;61.30;;;;;;5135460;27;20031;-54
2023/09/21 02:15:27;;;;;;;9.10;2.58;;;22.00;61.40;;;;;;5117153;27;20047;-53
2023/09/21 02:17:55;;;;;;;7.13;2.47;;;22.00;60.80;;;;;;5116747;27;20074;-55
2023/09/21 02:20:23;;;;;;;8.27;2.80;;;22.00;61.40;;;;;;5135250;27;20509;-54
2023/09/21 02:22:51;;;;;;;6.57;3.42;;;21.90;61.10;;;;;;5135538;27;20098;-55
2023/09/21 02:25:18;;;;;;;8.02;3.60;;;21.90;60.40;;;;;;5116880;27;20479;-55
2023/09/21 02:27:48;;;;;;;6.30;2.78;;;21.90;60.40;;;;;;5116757;27;20083;-55
2023/09/21 02:30:16;;;;;;;;;;;21.90;61.00;;;;;;5135727;27;20087;-52
2023/09/21 02:32:49;;;;;;;7.07;3.15;;;21.90;60.80;;;;;;5135349;27;19929;-55
2023/09/21 02:35:25;;;;;;;6.38;3.00;;;21.90;60.90;;;;;;5135168;27;20030;-55
2023/09/21 02:37:52;;;;;;;6.30;2.78;;;21.90;61.00;;;;;;5134871;27;20031;-55
2023/09/21 02:40:19;;;;;;;6.60;3.35;;;21.80;60.80;;;;;;5116550;27;20485;-55
2023/09/21 02:42:52;;;;;;;7.03;3.05;;;21.80;60.40;;;;;;5116668;27;20023;-53
2023/09/21 02:45:20;;;;;;;7.68;2.65;;;21.80;60.70;;;;;;5116616;27;20026;-53
2023/09/21 02:47:47;;;;;;;9.18;3.15;;;21.80;60.60;;;;;;5116385;27;20035;-55
2023/09/21 02:50:15;;;;;;;7.40;2.80;;;21.80;60.10;;;;;;5116315;27;20106;-55
2023/09/21 02:53:07;;;;;;;5.13;2.67;;;21.80;60.70;;;;;;5134642;27;20027;-53
2023/09/21 02:55:38;;;;;;;8.35;3.00;;;21.80;60.90;;;;;;5134555;27;20553;-54
2023/09/21 02:58:10;;;;;;;8.35;2.88;;;21.80;60.70;;;;;;5115990;27;20046;-53
2023/09/21 03:00:44;;;;;;;7.68;2.55;;;21.70;60.60;;;;;;5116304;27;20034;-53
2023/09/21 03:03:20;;;;;;;4.47;2.60;;;21.70;60.40;;;;;;5116258;27;20493;-50
2023/09/21 03:05:47;;;;;;;4.38;2.50;;;21.70;60.40;;;;;;5116244;27;20023;-49
2023/09/21 03:08:16;;;;;;;7.40;2.80;;;21.70;60.60;;;;;;5115841;27;20031;-50
2023/09/21 03:10:48;;;;;;;8.02;2.90;;;21.70;60.60;;;;;;5116255;27;20241;-54
2023/09/21 03:13:18;;;;;;;8.75;2.80;;;21.70;60.40;;;;;;5115992;27;20031;-48
2023/09/21 03:15:47;;;;;;;5.43;3.00;;;21.70;60.50;;;;;;5115980;27;20023;-53
2023/09/21 03:18:14;;;;;;;7.13;2.47;;;21.60;60.60;;;;;;5098804;27;20397;-55
2023/09/21 03:20:40;;;;;;;8.25;3.15;;;21.60;60.30;;;;;;5138092;22;20023;-53
2023/09/21 03:23:11;;;;;;;6.30;2.67;;;21.60;60.40;;;;;;5137682;27;20023;-51
2023/09/21 03:25:41;;;;;;;5.88;2.70;;;21.60;60.30;;;;;;5113706;28;20019;-53
2023/09/21 03:28:15;;;;;;;5.55;2.90;;;21.60;60.40;;;;;;5113428;28;20030;-53
2023/09/21 03:30:48;;;;;;;3.95;2.80;;;21.60;60.40;;;;;;5110837;28;20454;-50
2023/09/21 03:33:16;;;;;;;5.97;2.85;;;21.60;60.50;;;;;;5091764;28;20040;-50
2023/09/21 03:35:42;;;;;;;4.93;2.67;;;21.60;60.30;;;;;;5093181;28;20024;-54
2023/09/21 03:38:30;;;;;;;8.10;2.90;;;21.60;60.20;;;;;;5091263;28;20124;-56
2023/09/21 03:40:57;;;;;;;6.63;2.75;;;21.60;60.30;;;;;;5092574;28;20063;-56
2023/09/21 03:43:23;;;;;;;7.18;3.10;;;21.60;60.30;;;;;;5091561;28;20487;-56
2023/09/21 03:45:50;;;;;;;4.95;2.90;;;21.60;60.00;;;;;;5092691;28;20073;-56
2023/09/21 03:48:18;;;;;;;7.28;3.00;;;21.60;60.40;;;;;;5090824;28;20036;-56
2023/09/21 03:50:44;;;;;;;6.90;2.70;;;21.60;60.30;;;;;;5091429;28;20394;-55
2023/09/21 03:53:13;;;;;;;9.75;3.00;;;21.50;60.20;;;;;;5091548;28;20403;-52
2023/09/21 03:55:40;;;;;;;5.00;2.40;;;21.50;60.20;;;;;;5091551;28;20032;-56
2023/09/21 03:58:07;;;;;;;6.15;2.88;;;21.50;60.40;;;;;;5074043;28;20038;-54
2023/09/21 04:00:36;;;;;;;5.40;2.70;;;21.50;60.20;;;;;;5092191;28;20032;-54
2023/09/21 04:03:09;;;;;;;9.60;2.90;;;21.50;60.20;;;;;;5092554;28;20024;-55
2023/09/21 04:05:40;;;;;;;4.85;3.22;;;21.50;60.40;;;;;;5091390;28;20099;-56
2023/09/21 04:08:07;;;;;;;8.70;3.30;;;21.50;60.40;;;;;;5090414;28;20120;-56
2023/09/21 04:10:33;;;;;;;7.78;3.72;;;21.50;60.30;;;;;;5091096;28;20036;-56
2023/09/21 04:12:59;;;;;;;8.70;3.65;;;21.50;60.20;;;;;;5091094;28;20024;-55
2023/09/21 04:15:27;;;;;;;6.90;3.80;;;21.50;60.50;;;;;;5092427;28;20036;-55
2023/09/21 04:17:53;;;;;;;9.13;3.83;;;21.50;60.30;;;;;;5092072;28;20024;-56
2023/09/21 04:20:21;;;;;;;10.95;4.90;;;21.40;60.20;;;;;;5090949;28;20032;-55
2023/09/21 04:22:49;;;;;;;13.90;5.30;;;21.50;60.40;;;;;;5090760;28;20035;-56
2023/09/21 04:25:17;;;;;;;9.55;5.63;;;21.40;60.20;;;;;;5090932;28;20027;-57
2023/09/21 04:27:44;;;;;;;10.27;5.15;;;21.40;60.10;;;;;;5090798;28;20479;-53
2023/09/21 04:30:14;;;;;;;11.85;5.38;;;21.40;60.10;;;;;;5090675;28;20040;-55
2023/09/21 04:32:43;;;;;;;10.73;5.28;;;21.40;60.10;;;;;;5090737;28;20033;-54
2023/09/21 04:35:09;;;;;;;17.25;6.68;;;21.40;60.00;;;;;;5090913;28;20024;-54
2023/09/21 04:37:38;;;;;;;17.50;8.40;;;21.40;60.00;;;;;;5090651;28;20052;-55
2023/09/21 04:40:09;;;;;;;17.55;10.48;;;21.40;60.10;;;;;;5090278;28;20020;-53
2023/09/21 04:42:40;;;;;;;15.70;9.57;;;21.40;60.00;;;;;;5090637;28;20547;-55
2023/09/21 04:45:11;;;;;;;18.05;9.13;;;21.40;60.00;;;;;;5090673;28;20402;-53
2023/09/21 04:47:43;;;;;;;11.60;6.53;;;21.40;60.00;;;;;;5090554;28;20372;-56
2023/09/21 04:50:10;;;;;;;9.98;4.63;;;21.40;60.10;;;;;;5090354;28;20085;-49
2023/09/21 04:52:36;;;;;;;9.48;4.97;;;21.40;60.00;;;;;;5099149;28;20035;-56
2023/09/21 04:55:04;;;;;;;13.70;5.60;;;21.40;60.00;;;;;;5110870;28;20398;-55
2023/09/21 04:57:31;;;;;;;14.75;7.20;;;21.40;60.10;;;;;;5110896;28;20057;-56
2023/09/21 05:00:04;;;;;;;20.77;7.78;;;21.40;60.20;;;;;;5110570;28;20032;-56
2023/09/21 05:02:30;;;;;;;13.80;7.30;;;21.40;60.20;;;;;;5110873;28;20104;-56
2023/09/21 05:04:56;;;;;;;13.95;5.80;;;21.40;60.10;;;;;;5111988;28;20246;-55
2023/09/21 05:07:22;;;;;;;13.77;5.38;;;21.40;60.00;;;;;;5110679;28;20052;-53
2023/09/21 05:09:49;;;;;;;9.85;4.28;;;21.30;59.90;;;;;;5110417;28;20077;-54
2023/09/21 05:12:18;;;;;;;8.18;3.45;;;21.30;60.00;;;;;;5110608;28;20020;-53
2023/09/21 05:14:47;;;;;;;9.25;3.58;;;21.30;60.00;;;;;;5110667;28;20020;-52
2023/09/21 05:17:14;;;;;;;9.40;3.70;;;21.30;60.00;;;;;;5111726;28;20121;-52
2023/09/21 05:19:41;;;;;;;8.32;3.47;;;21.30;60.10;;;;;;5112953;28;20452;-53
2023/09/21 05:22:08;;;;;;;15.18;5.13;;;21.30;60.00;;;;;;5115837;28;20024;-56
2023/09/21 05:24:36;;;;;;;10.30;4.85;;;21.30;60.00;;;;;;5116124;28;20471;-51
2023/09/21 05:27:02;;;;;;;11.20;4.93;;;21.30;60.00;;;;;;5116152;28;20024;-53
2023/09/21 05:29:28;;;;;;;10.07;4.78;;;21.30;59.90;;;;;;5115499;28;20028;-55
2023/09/21 05:31:54;;;;;;;8.77;4.90;;;21.30;59.90;;;;;;5115649;28;20034;-55
2023/09/21 05:34:20;;;;;;;15.07;4.65;;;21.30;60.00;;;;;;5115624;27;20509;-55
2023/09/21 05:36:47;;;;;;;13.00;4.53;;;21.30;60.00;;;;;;5115579;28;20482;-51
2023/09/21 05:39:16;;;;;;;10.30;4.50;;;21.30;60.00;;;;;;5115207;28;20034;-54
2023/09/21 05:41:49;;;;;;;13.38;4.68;;;21.30;60.10;;;;;;5115716;28;20436;-54
2023/09/21 05:44:20;;;;;;;9.27;4.13;;;21.30;60.10;;;;;;5115624;28;20034;-56
2023/09/21 05:46:49;;;;;;;10.15;4.40;;;21.30;60.00;;;;;;5115381;28;20020;-53
2023/09/21 05:49:22;;;;;;;10.73;5.28;;;21.30;59.90;;;;;;5115076;28;20035;-55
2023/09/21 05:51:56;;;;;;;7.35;3.67;;;21.30;60.00;;;;;;5115345;28;20027;-56
2023/09/21 05:54:26;;;;;;;10.80;4.07;;;21.30;59.90;;;;;;5115268;28;20047;-55
2023/09/21 05:56:53;;;;;;;;;;;21.30;60.00;;;;;;5115744;28;20104;-50
2023/09/21 05:59:19;;;;;;;10.75;5.03;;;21.30;60.00;;;;;;5114759;28;19976;-53
2023/09/21 06:01:45;;;;;;;12.43;5.68;;;21.30;59.90;;;;;;5115007;28;20482;-54
2023/09/21 06:04:16;;;;;;;13.63;5.50;;;21.30;60.00;;;;;;5115057;28;20107;-51
2023/09/21 06:06:43;;;;;;;11.55;5.28;;;21.30;59.90;;;;;;5115235;28;20554;-55
2023/09/21 06:09:12;;;;;;;11.60;4.80;;;21.30;60.00;;;;;;5114904;28;20517;-55
2023/09/21 06:11:38;;;;;;;12.03;4.80;;;21.30;60.10;;;;;;5114930;28;20036;-56
2023/09/21 06:14:04;;;;;;;9.80;4.80;;;21.30;60.10;;;;;;5114781;28;20405;-50
2023/09/21 06:16:32;;;;;;;12.00;5.22;;;21.30;60.20;;;;;;5114934;28;20027;-56
2023/09/21 06:18:58;;;;;;;11.82;5.53;;;21.30;60.20;;;;;;5114371;28;20076;-49
2023/09/21 06:21:24;;;;;;;13.13;5.70;;;21.30;60.30;;;;;;5130494;27;20028;-51
2023/09/21 06:23:50;;;;;;;14.40;5.82;;;21.30;60.10;;;;;;5114754;28;20023;-55
2023/09/21 06:26:16;;;;;;;24.27;6.38;;;21.40;60.10;;;;;;5114772;27;20023;-50
2023/09/21 06:28:49;;;;;;;15.00;5.60;;;21.40;60.70;;;;;;5114510;28;20071;-52
2023/09/21 06:31:16;;;;;;;13.52;5.03;;;21.40;60.60;;;;;;5113483;28;20024;-51
2023/09/21 06:33:42;;;;;;;13.82;5.43;;;21.50;60.60;;;;;;5114359;27;20402;-53
2023/09/21 06:36:20;;;;;;;24.98;4.97;;;21.40;60.50;;;;;;5114548;28;20035;-53
2023/09/21 06:38:47;;;;;;;9.88;4.03;;;21.40;61.10;;;;;;5114074;28;20102;-55
2023/09/21 06:41:13;;;;;;;19.73;5.20;;;21.40;60.80;;;;;;5113821;28;20213;-52
2023/09/21 06:43:42;;;;;;;13.32;4.20;;;21.50;60.50;;;;;;5114060;28;20019;-55
2023/09/21 06:46:11;;;;;;;13.57;4.35;;;21.50;60.30;;;;;;5113429;28;20019;-56
2023/09/21 06:48:37;;;;;;;8.07;3.63;;;21.60;60.30;;;;;;5114009;28;20038;-51
2023/09/21 06:51:07;;;;;;;9.88;4.72;;;21.60;60.60;;;;;;5114323;28;20277;-52
2023/09/21 06:53:35;;;;;;;12.77;4.25;;;21.60;60.60;;;;;;5114310;28;20034;-57
2023/09/21 06:56:02;;;;;;;32.97;5.07;;;21.60;60.60;;;;;;5114085;28;20058;-54
2023/09/21 06:58:30;;;;;;;9.75;4.22;;;21.70;60.70;;;;;;5113716;27;20027;-57
2023/09/21 07:00:59;;;;;;;12.05;4.65;;;21.70;60.60;;;;;;5113950;28;20035;-57
2023/09/21 07:03:26;;;;;;;8.55;4.18;;;21.70;60.80;;;;;;5114058;28;20015;-57
2023/09/21 07:05:52;;;;;;;10.48;4.25;;;21.70;60.70;;;;;;5113998;28;20399;-57
2023/09/21 07:08:19;;;;;;;13.32;4.15;;;21.70;60.80;;;;;;5113583;28;20453;-57
2023/09/21 07:10:46;;;;;;;12.18;4.50;;;21.70;60.80;;;;;;5113855;28;20482;-57
2023/09/21 07:13:13;;;;;;;12.68;4.60;;;21.70;61.10;;;;;;5113823;28;20038;-56
2023/09/21 07:15:39;;;;;;;13.15;4.50;;;21.70;60.90;;;;;;5113815;28;20028;-56
2023/09/21 07:18:09;;;;;;;13.18;4.55;;;21.80;60.90;;;;;;5113731;28;20041;-54
2023/09/21 07:20:35;;;;;;;12.90;4.40;;;21.80;60.80;;;;;;5113892;28;20028;-56
2023/09/21 07:23:02;;;;;;;9.77;4.75;;;21.80;60.70;;;;;;5114137;28;20039;-57
2023/09/21 07:25:30;;;;;;;12.20;5.05;;;21.80;60.70;;;;;;5113497;28;20058;-55
2023/09/21 07:27:57;;;;;;;8.05;4.47;;;21.80;60.60;;;;;;5113387;28;20055;-56
2023/09/21 07:30:26;;;;;;;13.57;4.40;;;21.80;60.60;;;;;;5113603;28;20102;-56
2023/09/21 07:32:55;;;;;;;8.98;4.72;;;21.90;60.60;;;;;;5113482;28;20023;-49
2023/09/21 07:35:23;;;;;;;8.65;3.83;;;21.90;60.80;;;;;;5113326;27;20062;-51
2023/09/21 07:37:50;;;;;;;8.70;4.17;;;21.90;60.50;;;;;;5113043;28;20386;-53
2023/09/21 07:40:17;;;;;;;9.75;4.00;;;21.90;60.50;;;;;;5113242;28;20023;-52
2023/09/21 07:42:45;;;;;;;7.10;3.70;;;22.00;60.50;;;;;;5112052;27;20432;-53
2023/09/21 07:45:12;;;;;;;6.75;3.80;;;22.00;60.80;;;;;;5113095;28;20023;-55
2023/09/21 07:47:38;;;;;;;7.47;3.75;;;22.00;60.70;;;;;;5113156;28;20031;-54
2023/09/21 07:50:05;;;;;;;9.55;4.32;;;22.10;61.10;;;;;;5112796;28;20028;-55
2023/09/21 07:52:33;;;;;;;7.43;3.97;;;22.00;60.60;;;;;;5113068;28;20136;-53
2023/09/21 07:55:02;;;;;;;6.90;4.05;;;22.00;60.70;;;;;;5113156;28;20380;-54
2023/09/21 07:57:32;;;;;;;6.00;3.80;;;22.00;61.10;;;;;;5112908;28;20019;-50
2023/09/21 07:59:59;;;;;;;8.70;4.15;;;22.10;61.10;;;;;;5112644;28;20055;-54
2023/09/21 08:02:25;;;;;;;6.45;3.58;;;22.10;61.30;;;;;;5112818;28;20110;-56
2023/09/21 08:04:51;;;;;;;8.57;4.25;;;22.10;61.00;;;;;;5112789;28;20205;-54
2023/09/21 08:07:23;;;;;;;7.75;3.80;;;22.10;61.00;;;;;;5112814;28;20031;-50
2023/09/21 08:09:49;;;;;;;9.65;3.55;;;22.20;61.30;;;;;;5112532;28;20028;-56
2023/09/21 08:12:15;;;;;;;9.25;3.85;;;22.20;61.40;;;;;;5112576;28;20101;-53
2023/09/21 08:14:41;;;;;;;7.53;4.03;;;22.20;61.50;;;;;;5111523;28;20098;-51
2023/09/21 08:17:08;;;;;;;6.38;3.92;;;22.20;61.50;;;;;;5112732;28;20149;-54
2023/09/21 08:19:38;;;;;;;8.70;3.67;;;22.10;61.40;;;;;;5112203;28;20494;-52
2023/09/21 08:22:03;;;;;;;6.72;3.80;;;22.20;61.60;;;;;;5112500;28;20077;-53
2023/09/21 08:24:29;;;;;;;8.32;4.25;;;22.20;61.80;;;;;;5112507;28;20059;-55
2023/09/21 08:26:55;;;;;;;8.55;4.68;;;22.20;61.70;;;;;;5112410;28;20103;-52
2023/09/21 08:29:21;;;;;;;7.47;3.53;;;22.20;61.40;;;;;;5112080;28;20039;-55
2023/09/21 08:31:48;;;;;;;8.57;4.28;;;22.20;61.70;;;;;;5112210;28;20038;-50
2023/09/21 08:34:17;;;;;;;8.52;4.07;;;22.20;61.80;;;;;;5111175;28;20039;-53
2023/09/21 08:36:44;;;;;;;;;;;22.30;61.90;;;;;;5112891;28;20051;-52
2023/09/21 08:39:11;;;;;;;7.97;4.20;;;22.30;61.90;;;;;;5111947;28;19911;-56
2023/09/21 08:41:44;;;;;;;9.27;3.90;;;22.30;61.90;;;;;;5112236;28;20106;-53
2023/09/21 08:44:11;;;;;;;7.10;4.15;;;22.30;62.00;;;;;;5112247;28;20034;-56
2023/09/21 08:46:38;;;;;;;8.27;4.55;;;22.30;61.90;;;;;;5112185;28;20498;-51
2023/09/21 08:49:07;;;;;;;8.23;4.88;;;22.30;62.10;;;;;;5111824;28;20024;-54
2023/09/21 08:51:37;;;;;;;7.07;4.07;;;22.30;62.10;;;;;;5112028;28;20114;-54
2023/09/21 08:54:06;;;;;;;9.10;4.05;;;22.30;62.20;;;;;;5111999;28;20031;-55
2023/09/21 08:56:33;;;;;;;9.07;4.13;;;22.40;62.20;;;;;;5127918;27;20032;-53
2023/09/21 08:59:01;;;;;;;8.77;3.92;;;22.40;62.30;;;;;;5111690;28;20461;-54
2023/09/21 09:01:27;;;;;;;8.95;4.00;;;22.40;62.20;;;;;;5112028;28;20095;-52
2023/09/21 09:03:54;;;;;;;8.18;4.30;;;22.40;62.30;;;;;;5111947;28;20034;-53
2023/09/21 09:06:20;;;;;;;6.88;4.05;;;22.40;62.30;;;;;;5111999;28;20053;-54
2023/09/21 09:08:46;;;;;;;6.20;3.63;;;22.40;62.40;;;;;;5111733;28;20451;-55
2023/09/21 09:11:39;;;;;;;8.32;4.35;;;22.40;62.40;;;;;;5111814;28;20032;-54
2023/09/21 09:14:12;;;;;;;7.97;3.95;;;22.40;62.40;;;;;;5111952;28;20103;-55
2023/09/21 09:16:38;;;;;;;7.55;4.20;;;22.50;63.00;;;;;;5111956;28;20059;-53
2023/09/21 09:19:05;;;;;;;7.10;3.67;;;22.40;62.50;;;;;;5111589;28;20058;-54
2023/09/21 09:21:31;;;;;;;8.00;3.88;;;22.40;62.50;;;;;;5128136;22;20092;-52
2023/09/21 09:23:58;;;;;;;9.48;4.00;;;22.40;62.60;;;;;;5102976;28;20060;-54
2023/09/21 09:26:24;;;;;;;8.95;4.10;;;22.40;62.50;;;;;;5111731;28;20029;-53
2023/09/21 09:28:49;;;;;;;5.70;3.65;;;22.40;62.60;;;;;;5111479;28;20027;-54
2023/09/21 09:31:17;;;;;;;7.40;3.78;;;22.40;62.60;;;;;;5111685;28;20084;-52
2023/09/21 09:33:49;;;;;;;7.72;4.18;;;22.40;62.50;;;;;;5111730;28;20110;-54
2023/09/21 09:36:15;;;;;;;10.70;4.40;;;22.40;62.30;;;;;;5111643;28;20028;-53
2023/09/21 09:38:42;;;;;;;7.32;3.75;;;22.40;62.30;;;;;;5093074;28;20032;-54
2023/09/21 09:41:12;;;;;;;5.75;3.50;;;22.40;62.50;;;;;;5111470;28;20030;-49
2023/09/21 09:43:39;;;;;;;6.90;4.20;;;22.30;62.40;;;;;;5111333;28;20692;-52
2023/09/21 09:46:08;;;;;;;7.32;4.20;;;22.30;62.40;;;;;;5111582;28;20023;-54
2023/09/21 09:48:37;;;;;;;6.22;3.88;;;22.30;62.40;;;;;;5111439;28;20456;-53
2023/09/21 09:51:11;;;;;;;6.90;3.83;;;22.30;62.40;;;;;;5111399;28;20027;-52
2023/09/21 09:53:39;;;;;;;6.20;3.80;;;22.30;62.40;;;;;;5111572;28;20030;-51
2023/09/21 09:56:10;;;;;;;10.23;3.90;;;22.30;62.40;;;;;;5111425;28;20034;-53
2023/09/21 09:58:42;;;;;;;8.57;4.10;;;22.30;62.50;;;;;;5111068;28;20505;-47
2023/09/21 10:01:12;;;;;;;8.35;3.95;;;22.30;62.50;;;;;;5111462;28;20034;-46
2023/09/21 10:03:40;;;;;;;6.90;3.90;;;22.30;62.50;;;;;;5111479;28;20027;-45
2023/09/21 10:06:09;;;;;;;7.32;4.05;;;22.30;62.50;;;;;;5095252;28;20076;-45
2023/09/21 10:08:38;;;;;;;7.55;4.00;;;22.30;62.60;;;;;;5114970;28;20028;-46
2023/09/21 10:11:07;;;;;;;5.82;3.60;;;22.30;62.60;;;;;;5115352;28;20030;-49
2023/09/21 10:13:35;;;;;;;7.22;3.78;;;22.30;62.50;;;;;;5114929;28;20115;-48
2023/09/21 10:16:05;;;;;;;6.90;3.63;;;22.30;62.70;;;;;;5115054;28;20414;-46
2023/09/21 10:18:36;;;;;;;6.53;3.80;;;22.30;62.70;;;;;;5114608;28;20398;-48
2023/09/21 10:21:26;;;;;;;6.38;3.50;;;22.40;62.90;;;;;;5114910;28;20024;-49
2023/09/21 10:24:14;;;;;;;6.03;3.88;;;22.30;62.70;;;;;;5114850;28;20112;-45
2023/09/21 10:26:53;;;;;;;4.95;3.10;;;22.40;62.90;;;;;;5114716;28;20072;-45
2023/09/21 10:29:21;;;;;;;6.88;3.55;;;22.40;62.80;;;;;;5114492;28;20027;-46
2023/09/21 10:31:55;;;;;;;6.00;3.28;;;22.30;62.70;;;;;;5096393;28;20126;-49
2023/09/21 10:34:23;;;;;;;7.78;3.45;;;22.40;62.60;;;;;;5114674;28;20402;-49
2023/09/21 10:36:51;;;;;;;7.65;3.33;;;22.30;62.70;;;;;;5114619;28;20386;-45
2023/09/21 10:39:26;;;;;;;5.10;3.30;;;22.40;62.80;;;;;;5114031;28;20032;-48
2023/09/21 10:41:54;;;;;;;5.28;3.17;;;22.30;62.70;;;;;;5114178;28;20023;-46
2023/09/21 10:45:02;;;;;;;5.43;3.50;;;22.30;62.60;;;;;;5114435;28;20531;-46
2023/09/21 10:47:38;;;;;;;7.57;3.83;;;22.30;62.60;;;;;;5114412;28;20046;-49
2023/09/21 10:50:12;;;;;;;7.40;3.47;;;22.30;62.70;;;;;;5114439;28;20070;-46
2023/09/21 10:52:42;;;;;;;5.80;3.28;;;22.30;62.70;;;;;;5114228;28;20061;-50
2023/09/21 10:55:12;;;;;;;4.88;3.13;;;22.30;62.70;;;;;;5114094;28;20027;-46
2023/09/21 10:57:38;;;;;;;8.55;3.90;;;22.30;62.70;;;;;;5114012;28;20054;-53
2023/09/21 11:00:08;;;;;;;6.78;3.47;;;22.30;62.60;;;;;;5095746;28;20024;-52
2023/09/21 11:02:40;;;;;;;5.88;3.50;;;22.30;62.70;;;;;;5114101;28;20026;-49
2023/09/21 11:05:09;;;;;;;6.20;3.60;;;22.30;62.70;;;;;;5114018;28;20024;-49
2023/09/21 11:07:36;;;;;;;5.72;3.65;;;22.30;62.90;;;;;;5113905;28;20390;-52
2023/09/21 11:10:06;;;;;;;7.15;3.78;;;22.30;62.70;;;;;;5113519;28;20019;-52
2023/09/21 11:12:33;;;;;;;5.75;3.38;;;22.30;62.80;;;;;;5113824;28;20027;-52
2023/09/21 11:14:59;;;;;;;5.25;3.00;;;22.30;62.90;;;;;;5113979;28;20023;-54
2023/09/21 11:17:27;;;;;;;5.43;3.03;;;22.30;62.90;;;;;;5113835;28;20024;-53
2023/09/21 11:19:53;;;;;;;4.90;3.17;;;22.30;63.00;;;;;;5113509;28;20028;-54
2023/09/21 11:22:19;;;;;;;6.32;3.10;;;22.30;62.90;;;;;;5113651;28;20387;-53
2023/09/21 11:24:46;;;;;;;5.38;3.15;;;22.40;63.60;;;;;;5113599;28;20039;-52
2023/09/21 11:27:14;;;;;;;5.45;3.20;;;22.40;62.90;;;;;;5113541;28;20028;-55
2023/09/21 11:29:43;;;;;;;5.38;3.20;;;22.40;62.90;;;;;;5095119;28;20042;-52
2023/09/21 11:32:17;;;;;;;5.22;3.10;;;22.40;62.80;;;;;;5095177;28;20032;-53
2023/09/21 11:34:44;;;;;;;4.90;2.95;;;22.40;62.80;;;;;;5095278;28;20024;-53
2023/09/21 11:37:11;;;;;;;5.13;3.00;;;22.40;62.90;;;;;;5113380;28;20083;-54
2023/09/21 11:39:38;;;;;;;8.30;3.20;;;22.40;62.80;;;;;;5112906;28;20029;-54
2023/09/21 11:42:10;;;;;;;4.70;3.00;;;22.40;62.80;;;;;;5113259;28;20028;-49
2023/09/21 11:44:41;;;;;;;5.20;3.10;;;22.40;62.80;;;;;;5113323;28;20032;-54
2023/09/21 11:47:10;;;;;;;4.28;3.20;;;22.40;62.60;;;;;;5113227;28;20099;-52
2023/09/21 11:49:38;;;;;;;6.07;3.33;;;22.40;62.70;;;;;;5112909;28;20038;-49
2023/09/21 11:52:05;;;;;;;4.90;2.60;;;22.40;62.80;;;;;;5113010;28;20035;-54
2023/09/21 11:54:35;;;;;;;5.40;3.15;;;22.40;62.80;;;;;;5112957;28;20027;-54
2023/09/21 11:57:03;;;;;;;4.78;2.75;;;22.40;62.80;;;;;;5094806;28;20028;-54
2023/09/21 11:59:32;;;;;;;4.50;2.80;;;22.40;62.70;;;;;;5112580;28;20028;-53
2023/09/21 12:01:59;;;;;;;4.43;3.00;;;22.40;62.70;;;;;;5112952;28;20496;-50
2023/09/21 12:04:29;;;;;;;6.40;2.83;;;22.40;62.70;;;;;;5112921;28;20543;-53
2023/09/21 12:06:59;;;;;;;3.42;2.22;;;22.40;62.60;;;;;;5112979;28;20022;-50
2023/09/21 12:09:26;;;;;;;4.57;2.83;;;22.40;62.60;;;;;;5112310;28;20035;-47
2023/09/21 12:11:54;;;;;;;5.18;2.92;;;22.40;62.70;;;;;;5112684;28;20024;-46
2023/09/21 12:14:24;;;;;;;5.25;3.00;;;22.40;63.30;;;;;;5094443;28;20027;-48
2023/09/21 12:16:53;;;;;;;4.00;2.58;;;22.40;62.60;;;;;;5112683;28;20076;-47
2023/09/21 12:19:19;;;;;;;4.90;2.70;;;22.40;62.60;;;;;;5112304;28;20035;-49
2023/09/21 12:21:48;;;;;;;5.57;2.95;;;22.40;62.60;;;;;;5112300;28;20031;-51
2023/09/21 12:24:18;;;;;;;3.47;2.50;;;22.40;62.60;;;;;;5112501;28;20024;-49
2023/09/21 12:26:44;;;;;;;5.30;2.70;;;22.40;62.60;;;;;;5112508;28;20034;-47
2023/09/21 12:29:10;;;;;;;4.45;2.88;;;22.40;62.60;;;;;;5111894;28;20472;-51
2023/09/21 12:31:37;;;;;;;5.28;3.15;;;22.40;62.60;;;;;;5112504;28;20418;-48
2023/09/21 12:34:03;;;;;;;5.30;2.70;;;22.40;62.60;;;;;;5112430;28;20031;-50
2023/09/21 12:36:28;;;;;;;4.28;2.72;;;22.40;62.70;;;;;;5112192;28;20031;-49
2023/09/21 12:38:54;;;;;;;5.05;3.00;;;22.40;62.70;;;;;;5111861;28;20023;-49
2023/09/21 12:41:20;;;;;;;5.28;2.53;;;22.40;62.70;;;;;;5112172;28;20030;-52
2023/09/21 12:43:46;;;;;;;4.80;2.65;;;22.40;62.70;;;;;;5111898;28;20517;-52
2023/09/21 12:46:12;;;;;;;5.38;2.70;;;22.40;62.70;;;;;;5112083;28;20035;-49
2023/09/21 12:48:38;;;;;;;3.65;2.55;;;22.40;62.70;;;;;;5111999;28;20024;-47
2023/09/21 12:51:04;;;;;;;4.93;2.88;;;22.40;62.80;;;;;;5112059;28;20080;-48
2023/09/21 12:53:31;;;;;;;4.22;2.70;;;22.40;62.70;;;;;;5112093;28;20023;-50